sensor_id;sensor_type;location;lat;lon;timestamp;pressure;altitude;pressure_sealevel;temperature;humidity
16451;BME280;12243;42.708;23.310;2023-04-15T00:01:00;94280.97;;;8.63;79.66
16451;BME280;12243;42.708;23.310;2023-04-15T00:03:28;94281.09;;;8.51;80.67
16451;BME280;12243;42.708;23.310;2023-04-15T00:05:55;94292.13;;;8.53;80.25
16451;BME280;12243;42.708;23.310;2023-04-15T00:08:22;94289.66;;;8.42;80.99
16451;BME280;12243;42.708;23.310;2023-04-15T00:10:48;94291.28;;;8.43;82.01
16451;BME280;12243;42.708;23.310;2023-04-15T00:13:17;94290.50;;;8.52;83.03
16451;BME280;12243;42.708;23.310;2023-04-15T00:15:43;94279.03;;;8.55;82.56
16451;BME280;12243;42.708;23.310;2023-04-15T00:18:10;94278.88;;;8.56;82.94
16451;BME280;12243;42.708;23.310;2023-04-15T00:20:37;94278.50;;;8.71;82.11
16451;BME280;12243;42.708;23.310;2023-04-15T00:23:04;94269.78;;;8.72;82.07
16451;BME280;12243;42.708;23.310;2023-04-15T00:25:32;94278.25;;;8.83;81.07
16451;BME280;12243;42.708;23.310;2023-04-15T00:27:59;94273.31;;;8.80;81.29
16451;BME280;12243;42.708;23.310;2023-04-15T00:30:27;94279.59;;;8.78;81.07
16451;BME280;12243;42.708;23.310;2023-04-15T00:32:54;94270.47;;;8.83;80.73
16451;BME280;12243;42.708;23.310;2023-04-15T00:35:21;94280.59;;;8.96;80.77
16451;BME280;12243;42.708;23.310;2023-04-15T00:37:49;94295.47;;;9.04;80.31
16451;BME280;12243;42.708;23.310;2023-04-15T00:40:17;94292.34;;;9.00;80.69
16451;BME280;12243;42.708;23.310;2023-04-15T00:42:44;94288.91;;;9.10;81.88
16451;BME280;12243;42.708;23.310;2023-04-15T00:45:14;94274.69;;;9.04;82.56
16451;BME280;12243;42.708;23.310;2023-04-15T00:47:43;94279.47;;;9.09;83.37
16451;BME280;12243;42.708;23.310;2023-04-15T00:50:12;94281.66;;;9.13;83.44
16451;BME280;12243;42.708;23.310;2023-04-15T00:52:40;94277.16;;;9.15;84.29
16451;BME280;12243;42.708;23.310;2023-04-15T00:55:08;94272.88;;;9.24;84.71
16451;BME280;12243;42.708;23.310;2023-04-15T00:57:36;94267.69;;;9.24;84.11
16451;BME280;12243;42.708;23.310;2023-04-15T01:00:04;94268.13;;;9.19;83.77
16451;BME280;12243;42.708;23.310;2023-04-15T01:02:33;94284.41;;;9.12;84.21
16451;BME280;12243;42.708;23.310;2023-04-15T01:05:02;94290.13;;;9.05;84.60
16451;BME280;12243;42.708;23.310;2023-04-15T01:07:30;94295.59;;;9.12;85.18
16451;BME280;12243;42.708;23.310;2023-04-15T01:09:57;94299.03;;;9.13;84.82
16451;BME280;12243;42.708;23.310;2023-04-15T01:12:25;94300.50;;;8.96;85.65
16451;BME280;12243;42.708;23.310;2023-04-15T01:14:53;94292.06;;;8.94;86.43
16451;BME280;12243;42.708;23.310;2023-04-15T01:17:21;94284.94;;;8.86;87.87
16451;BME280;12243;42.708;23.310;2023-04-15T01:19:48;94285.22;;;8.83;88.30
16451;BME280;12243;42.708;23.310;2023-04-15T01:22:16;94278.09;;;8.85;89.13
16451;BME280;12243;42.708;23.310;2023-04-15T01:24:48;94289.59;;;8.82;89.10
16451;BME280;12243;42.708;23.310;2023-04-15T01:27:19;94286.97;;;8.92;88.99
16451;BME280;12243;42.708;23.310;2023-04-15T01:29:46;94286.72;;;9.05;87.84
16451;BME280;12243;42.708;23.310;2023-04-15T01:32:13;94279.88;;;8.94;87.93
16451;BME280;12243;42.708;23.310;2023-04-15T01:34:40;94277.16;;;8.86;87.66
16451;BME280;12243;42.708;23.310;2023-04-15T01:37:07;94285.75;;;8.77;87.39
16451;BME280;12243;42.708;23.310;2023-04-15T01:39:34;94275.09;;;8.70;88.40
16451;BME280;12243;42.708;23.310;2023-04-15T01:42:01;94281.53;;;8.76;86.49
16451;BME280;12243;42.708;23.310;2023-04-15T01:44:29;94283.44;;;8.83;86.40
16451;BME280;12243;42.708;23.310;2023-04-15T01:46:56;94276.72;;;8.81;86.75
16451;BME280;12243;42.708;23.310;2023-04-15T01:49:23;94283.56;;;8.63;88.13
16451;BME280;12243;42.708;23.310;2023-04-15T01:51:49;94292.00;;;8.55;88.35
16451;BME280;12243;42.708;23.310;2023-04-15T01:54:16;94293.31;;;8.40;88.76
16451;BME280;12243;42.708;23.310;2023-04-15T01:56:43;94300.19;;;8.41;89.58
16451;BME280;12243;42.708;23.310;2023-04-15T01:59:10;94303.75;;;8.49;89.38
16451;BME280;12243;42.708;23.310;2023-04-15T02:01:39;94303.13;;;8.36;89.61
16451;BME280;12243;42.708;23.310;2023-04-15T02:04:05;94307.47;;;8.26;90.43
16451;BME280;12243;42.708;23.310;2023-04-15T02:06:33;94311.38;;;8.41;89.46
16451;BME280;12243;42.708;23.310;2023-04-15T02:09:00;94308.31;;;8.26;89.61
16451;BME280;12243;42.708;23.310;2023-04-15T02:11:28;94307.31;;;8.18;89.67
16451;BME280;12243;42.708;23.310;2023-04-15T02:13:55;94294.72;;;8.13;88.76
16451;BME280;12243;42.708;23.310;2023-04-15T02:16:24;94299.19;;;8.01;88.76
16451;BME280;12243;42.708;23.310;2023-04-15T02:18:52;94294.91;;;7.91;88.92
16451;BME280;12243;42.708;23.310;2023-04-15T02:21:19;94304.91;;;7.95;88.85
16451;BME280;12243;42.708;23.310;2023-04-15T02:23:46;94305.91;;;7.83;88.25
16451;BME280;12243;42.708;23.310;2023-04-15T02:26:13;94298.88;;;7.64;88.13
16451;BME280;12243;42.708;23.310;2023-04-15T02:28:40;94293.56;;;7.66;88.37
16451;BME280;12243;42.708;23.310;2023-04-15T02:31:07;94294.63;;;7.63;89.07
16451;BME280;12243;42.708;23.310;2023-04-15T02:33:34;94294.63;;;7.42;90.22
16451;BME280;12243;42.708;23.310;2023-04-15T02:36:04;94296.34;;;7.32;91.04
16451;BME280;12243;42.708;23.310;2023-04-15T02:38:31;94307.72;;;7.20;91.78
16451;BME280;12243;42.708;23.310;2023-04-15T02:40:58;94310.50;;;7.28;92.07
16451;BME280;12243;42.708;23.310;2023-04-15T02:43:27;94314.03;;;7.27;91.70
16451;BME280;12243;42.708;23.310;2023-04-15T02:45:53;94307.81;;;6.97;92.25
16451;BME280;12243;42.708;23.310;2023-04-15T02:48:20;94308.81;;;6.85;93.07
16451;BME280;12243;42.708;23.310;2023-04-15T02:50:47;94309.28;;;6.79;93.89
16451;BME280;12243;42.708;23.310;2023-04-15T02:53:17;94308.00;;;6.84;94.41
16451;BME280;12243;42.708;23.310;2023-04-15T02:55:44;94306.84;;;6.77;94.04
16451;BME280;12243;42.708;23.310;2023-04-15T02:58:11;94309.09;;;6.71;93.99
16451;BME280;12243;42.708;23.310;2023-04-15T03:00:38;94313.78;;;6.77;93.36
16451;BME280;12243;42.708;23.310;2023-04-15T03:03:05;94318.50;;;6.72;91.98
16451;BME280;12243;42.708;23.310;2023-04-15T03:05:33;94325.13;;;6.53;92.87
16451;BME280;12243;42.708;23.310;2023-04-15T03:08:03;94317.75;;;6.49;93.12
16451;BME280;12243;42.708;23.310;2023-04-15T03:10:31;94319.66;;;6.24;93.67
16451;BME280;12243;42.708;23.310;2023-04-15T03:13:00;94320.59;;;6.12;95.53
16451;BME280;12243;42.708;23.310;2023-04-15T03:15:27;94327.03;;;6.06;95.91
16451;BME280;12243;42.708;23.310;2023-04-15T03:17:54;94331.72;;;5.90;94.82
16451;BME280;12243;42.708;23.310;2023-04-15T03:20:21;94325.97;;;5.86;96.12
16451;BME280;12243;42.708;23.310;2023-04-15T03:22:48;94334.78;;;5.84;94.90
16451;BME280;12243;42.708;23.310;2023-04-15T03:25:15;94324.53;;;5.82;94.98
16451;BME280;12243;42.708;23.310;2023-04-15T03:27:43;94327.47;;;5.78;94.66
16451;BME280;12243;42.708;23.310;2023-04-15T03:30:12;94340.63;;;5.74;94.65
16451;BME280;12243;42.708;23.310;2023-04-15T03:32:40;94339.72;;;5.87;95.27
16451;BME280;12243;42.708;23.310;2023-04-15T03:35:08;94355.47;;;5.95;94.99
16451;BME280;12243;42.708;23.310;2023-04-15T03:37:35;94360.13;;;5.79;94.63
16451;BME280;12243;42.708;23.310;2023-04-15T03:40:02;94357.38;;;5.93;95.31
16451;BME280;12243;42.708;23.310;2023-04-15T03:42:29;94364.19;;;5.94;94.05
16451;BME280;12243;42.708;23.310;2023-04-15T03:44:57;94365.59;;;5.98;94.37
16451;BME280;12243;42.708;23.310;2023-04-15T03:47:24;94377.09;;;6.05;95.01
16451;BME280;12243;42.708;23.310;2023-04-15T03:49:51;94378.06;;;5.93;94.66
16451;BME280;12243;42.708;23.310;2023-04-15T03:52:17;94376.38;;;6.03;94.69
16451;BME280;12243;42.708;23.310;2023-04-15T03:54:44;94386.50;;;5.95;93.85
16451;BME280;12243;42.708;23.310;2023-04-15T03:57:12;94379.78;;;5.92;95.04
16451;BME280;12243;42.708;23.310;2023-04-15T03:59:39;94380.34;;;5.85;95.18
16451;BME280;12243;42.708;23.310;2023-04-15T04:02:07;94371.19;;;5.92;96.35
16451;BME280;12243;42.708;23.310;2023-04-15T04:04:34;94364.38;;;5.91;95.54
16451;BME280;12243;42.708;23.310;2023-04-15T04:07:01;94366.50;;;5.86;96.69
16451;BME280;12243;42.708;23.310;2023-04-15T04:09:27;94369.81;;;5.99;97.10
16451;BME280;12243;42.708;23.310;2023-04-15T04:11:54;94376.34;;;5.92;97.81
16451;BME280;12243;42.708;23.310;2023-04-15T04:14:22;94377.56;;;5.99;98.03
16451;BME280;12243;42.708;23.310;2023-04-15T04:16:53;94371.72;;;6.08;97.50
16451;BME280;12243;42.708;23.310;2023-04-15T04:19:22;94374.53;;;6.16;98.04
16451;BME280;12243;42.708;23.310;2023-04-15T04:21:50;94376.03;;;6.41;97.89
16451;BME280;12243;42.708;23.310;2023-04-15T04:24:17;94386.34;;;6.75;97.43
16451;BME280;12243;42.708;23.310;2023-04-15T04:26:44;94378.88;;;7.04;95.75
16451;BME280;12243;42.708;23.310;2023-04-15T04:29:10;94385.56;;;7.39;94.76
16451;BME280;12243;42.708;23.310;2023-04-15T04:31:37;94394.81;;;7.74;91.50
16451;BME280;12243;42.708;23.310;2023-04-15T04:34:05;94391.22;;;7.86;89.89
16451;BME280;12243;42.708;23.310;2023-04-15T04:36:33;94385.06;;;8.08;89.74
16451;BME280;12243;42.708;23.310;2023-04-15T04:39:00;94383.06;;;8.42;87.25
16451;BME280;12243;42.708;23.310;2023-04-15T04:41:27;94382.16;;;8.53;85.80
16451;BME280;12243;42.708;23.310;2023-04-15T04:43:54;94392.25;;;8.56;84.75
16451;BME280;12243;42.708;23.310;2023-04-15T04:46:21;94388.63;;;8.78;84.54
16451;BME280;12243;42.708;23.310;2023-04-15T04:48:48;94391.28;;;8.97;82.25
16451;BME280;12243;42.708;23.310;2023-04-15T04:51:15;94399.78;;;9.09;79.98
16451;BME280;12243;42.708;23.310;2023-04-15T04:53:43;94401.97;;;9.04;80.26
16451;BME280;12243;42.708;23.310;2023-04-15T04:56:10;94404.59;;;9.33;79.87
16451;BME280;12243;42.708;23.310;2023-04-15T04:58:37;94406.53;;;9.50;78.59
16451;BME280;12243;42.708;23.310;2023-04-15T05:01:04;94414.19;;;9.71;77.49
16451;BME280;12243;42.708;23.310;2023-04-15T05:03:31;94405.00;;;9.87;75.55
16451;BME280;12243;42.708;23.310;2023-04-15T05:05:58;94412.78;;;9.96;75.89
16451;BME280;12243;42.708;23.310;2023-04-15T05:08:25;94412.06;;;10.14;76.31
16451;BME280;12243;42.708;23.310;2023-04-15T05:10:53;94419.31;;;10.20;74.64
16451;BME280;12243;42.708;23.310;2023-04-15T05:13:20;94424.34;;;10.41;74.05
16451;BME280;12243;42.708;23.310;2023-04-15T05:15:47;94425.41;;;10.58;73.79
16451;BME280;12243;42.708;23.310;2023-04-15T05:18:14;94442.31;;;10.81;73.29
16451;BME280;12243;42.708;23.310;2023-04-15T05:20:41;94437.19;;;11.17;71.12
16451;BME280;12243;42.708;23.310;2023-04-15T05:23:08;94426.03;;;11.25;70.45
16451;BME280;12243;42.708;23.310;2023-04-15T05:25:35;94442.38;;;11.44;69.84
16451;BME280;12243;42.708;23.310;2023-04-15T05:28:03;94441.19;;;11.57;68.10
16451;BME280;12243;42.708;23.310;2023-04-15T05:30:31;94436.13;;;11.37;68.57
16451;BME280;12243;42.708;23.310;2023-04-15T05:32:58;94430.75;;;11.39;69.06
16451;BME280;12243;42.708;23.310;2023-04-15T05:35:24;94429.19;;;11.64;66.89
16451;BME280;12243;42.708;23.310;2023-04-15T05:37:51;94426.16;;;11.86;66.61
16451;BME280;12243;42.708;23.310;2023-04-15T05:40:18;94427.13;;;11.85;66.13
16451;BME280;12243;42.708;23.310;2023-04-15T05:42:45;94427.72;;;11.79;66.22
16451;BME280;12243;42.708;23.310;2023-04-15T05:45:13;94431.44;;;11.95;66.00
16451;BME280;12243;42.708;23.310;2023-04-15T05:47:40;94438.88;;;12.25;65.40
16451;BME280;12243;42.708;23.310;2023-04-15T05:50:08;94435.16;;;12.62;63.58
16451;BME280;12243;42.708;23.310;2023-04-15T05:52:35;94442.28;;;12.78;63.64
16451;BME280;12243;42.708;23.310;2023-04-15T05:55:02;94448.44;;;13.03;61.47
16451;BME280;12243;42.708;23.310;2023-04-15T05:57:29;94445.22;;;13.17;60.50
16451;BME280;12243;42.708;23.310;2023-04-15T05:59:56;94441.69;;;13.26;61.34
16451;BME280;12243;42.708;23.310;2023-04-15T06:02:24;94448.94;;;13.49;61.03
16451;BME280;12243;42.708;23.310;2023-04-15T06:04:52;94445.38;;;13.66;59.20
16451;BME280;12243;42.708;23.310;2023-04-15T06:07:19;94443.13;;;13.88;58.99
16451;BME280;12243;42.708;23.310;2023-04-15T06:09:46;94452.94;;;13.86;58.50
16451;BME280;12243;42.708;23.310;2023-04-15T06:12:13;94452.63;;;13.97;58.40
16451;BME280;12243;42.708;23.310;2023-04-15T06:14:40;94454.75;;;14.01;58.04
16451;BME280;12243;42.708;23.310;2023-04-15T06:17:07;94450.50;;;14.25;58.04
16451;BME280;12243;42.708;23.310;2023-04-15T06:19:35;94455.09;;;14.31;57.99
16451;BME280;12243;42.708;23.310;2023-04-15T06:22:02;94456.25;;;14.37;56.99
16451;BME280;12243;42.708;23.310;2023-04-15T06:24:31;94474.72;;;14.11;55.62
16451;BME280;12243;42.708;23.310;2023-04-15T06:26:58;94471.59;;;13.82;57.04
16451;BME280;12243;42.708;23.310;2023-04-15T06:29:28;94471.91;;;13.71;57.35
16451;BME280;12243;42.708;23.310;2023-04-15T06:31:55;94470.88;;;13.56;58.43
16451;BME280;12243;42.708;23.310;2023-04-15T06:34:22;94481.38;;;13.72;58.56
16451;BME280;12243;42.708;23.310;2023-04-15T06:36:51;94479.78;;;13.96;56.76
16451;BME280;12243;42.708;23.310;2023-04-15T06:39:19;94467.03;;;14.01;57.18
16451;BME280;12243;42.708;23.310;2023-04-15T06:41:46;94480.44;;;14.14;57.82
16451;BME280;12243;42.708;23.310;2023-04-15T06:44:13;94481.13;;;14.41;56.86
16451;BME280;12243;42.708;23.310;2023-04-15T06:46:40;94486.19;;;14.75;56.61
16451;BME280;12243;42.708;23.310;2023-04-15T06:49:07;94486.91;;;15.08;54.69
16451;BME280;12243;42.708;23.310;2023-04-15T06:51:34;94485.09;;;15.17;54.44
16451;BME280;12243;42.708;23.310;2023-04-15T06:54:03;94487.25;;;15.13;54.32
16451;BME280;12243;42.708;23.310;2023-04-15T06:56:30;94481.97;;;15.21;54.05
16451;BME280;12243;42.708;23.310;2023-04-15T06:58:57;94477.28;;;15.40;52.27
16451;BME280;12243;42.708;23.310;2023-04-15T07:01:24;94483.81;;;15.52;52.71
16451;BME280;12243;42.708;23.310;2023-04-15T07:03:57;94481.81;;;15.54;51.88
16451;BME280;12243;42.708;23.310;2023-04-15T07:06:27;94472.09;;;15.23;52.75
16451;BME280;12243;42.708;23.310;2023-04-15T07:08:53;94477.75;;;15.04;53.00
16451;BME280;12243;42.708;23.310;2023-04-15T07:11:24;94487.72;;;15.09;52.13
16451;BME280;12243;42.708;23.310;2023-04-15T07:13:51;94472.72;;;15.34;50.26
16451;BME280;12243;42.708;23.310;2023-04-15T07:16:18;94480.78;;;15.71;51.31
16451;BME280;12243;42.708;23.310;2023-04-15T07:18:45;94469.59;;;15.78;51.29
16451;BME280;12243;42.708;23.310;2023-04-15T07:21:12;94471.75;;;15.74;51.74
16451;BME280;12243;42.708;23.310;2023-04-15T07:23:39;94477.13;;;15.81;51.75
16451;BME280;12243;42.708;23.310;2023-04-15T07:26:06;94468.56;;;15.87;51.54
16451;BME280;12243;42.708;23.310;2023-04-15T07:28:35;94480.53;;;16.12;52.21
16451;BME280;12243;42.708;23.310;2023-04-15T07:31:02;94482.78;;;16.38;50.33
16451;BME280;12243;42.708;23.310;2023-04-15T07:33:29;94478.63;;;16.44;49.91
16451;BME280;12243;42.708;23.310;2023-04-15T07:35:56;94481.97;;;16.38;49.23
16451;BME280;12243;42.708;23.310;2023-04-15T07:38:24;94489.59;;;16.71;49.45
16451;BME280;12243;42.708;23.310;2023-04-15T07:40:53;94482.75;;;16.99;47.72
16451;BME280;12243;42.708;23.310;2023-04-15T07:43:21;94476.84;;;16.97;44.52
16451;BME280;12243;42.708;23.310;2023-04-15T07:45:49;94476.47;;;17.00;45.09
16451;BME280;12243;42.708;23.310;2023-04-15T07:48:16;94472.06;;;17.16;46.23
16451;BME280;12243;42.708;23.310;2023-04-15T07:50:43;94478.09;;;17.01;43.97
16451;BME280;12243;42.708;23.310;2023-04-15T07:53:10;94485.13;;;17.09;45.55
16451;BME280;12243;42.708;23.310;2023-04-15T07:55:37;94482.09;;;17.42;44.06
16451;BME280;12243;42.708;23.310;2023-04-15T07:58:04;94489.69;;;17.66;43.73
16451;BME280;12243;42.708;23.310;2023-04-15T08:00:31;94486.28;;;18.02;42.27
16451;BME280;12243;42.708;23.310;2023-04-15T08:02:59;94495.13;;;17.94;42.73
16451;BME280;12243;42.708;23.310;2023-04-15T08:05:26;94494.09;;;18.10;42.28
16451;BME280;12243;42.708;23.310;2023-04-15T08:07:53;94498.53;;;18.52;41.99
16451;BME280;12243;42.708;23.310;2023-04-15T08:10:20;94493.91;;;18.76;40.19
16451;BME280;12243;42.708;23.310;2023-04-15T08:12:47;94492.72;;;18.85;39.23
16451;BME280;12243;42.708;23.310;2023-04-15T08:15:15;94486.69;;;18.91;39.51
16451;BME280;12243;42.708;23.310;2023-04-15T08:17:42;94495.88;;;19.30;39.35
16451;BME280;12243;42.708;23.310;2023-04-15T08:20:11;94493.66;;;19.68;37.89
16451;BME280;12243;42.708;23.310;2023-04-15T08:22:39;94499.31;;;19.65;37.23
16451;BME280;12243;42.708;23.310;2023-04-15T08:25:06;94488.59;;;19.73;36.19
16451;BME280;12243;42.708;23.310;2023-04-15T08:27:34;94485.75;;;19.75;35.62
16451;BME280;12243;42.708;23.310;2023-04-15T08:30:01;94485.03;;;19.94;35.08
16451;BME280;12243;42.708;23.310;2023-04-15T08:32:28;94494.78;;;20.07;34.70
16451;BME280;12243;42.708;23.310;2023-04-15T08:34:55;94490.94;;;20.10;34.56
16451;BME280;12243;42.708;23.310;2023-04-15T08:37:23;94484.59;;;19.97;32.35
16451;BME280;12243;42.708;23.310;2023-04-15T08:39:51;94480.22;;;19.63;33.18
16451;BME280;12243;42.708;23.310;2023-04-15T08:42:22;94468.44;;;19.66;34.38
16451;BME280;12243;42.708;23.310;2023-04-15T08:44:54;94473.97;;;19.36;35.66
16451;BME280;12243;42.708;23.310;2023-04-15T08:47:21;94478.03;;;19.32;35.20
16451;BME280;12243;42.708;23.310;2023-04-15T08:49:54;94474.28;;;19.20;35.73
16451;BME280;12243;42.708;23.310;2023-04-15T08:52:25;94478.75;;;19.19;35.46
16451;BME280;12243;42.708;23.310;2023-04-15T08:54:56;94473.25;;;19.21;35.62
16451;BME280;12243;42.708;23.310;2023-04-15T08:57:25;94475.97;;;19.34;35.30
16451;BME280;12243;42.708;23.310;2023-04-15T08:59:52;94477.44;;;19.78;35.41
16451;BME280;12243;42.708;23.310;2023-04-15T09:02:22;94468.94;;;19.89;34.26
16451;BME280;12243;42.708;23.310;2023-04-15T09:04:50;94477.47;;;19.91;34.53
16451;BME280;12243;42.708;23.310;2023-04-15T09:07:17;94466.69;;;19.93;34.23
16451;BME280;12243;42.708;23.310;2023-04-15T09:09:45;94462.88;;;20.02;33.94
16451;BME280;12243;42.708;23.310;2023-04-15T09:12:12;94462.03;;;19.95;34.26
16451;BME280;12243;42.708;23.310;2023-04-15T09:14:39;94456.66;;;19.68;35.27
16451;BME280;12243;42.708;23.310;2023-04-15T09:17:09;94450.03;;;19.44;34.45
16451;BME280;12243;42.708;23.310;2023-04-15T09:19:36;94443.53;;;19.06;35.24
16451;BME280;12243;42.708;23.310;2023-04-15T09:22:03;94437.78;;;19.30;35.14
16451;BME280;12243;42.708;23.310;2023-04-15T09:24:35;94434.97;;;19.38;35.39
16451;BME280;12243;42.708;23.310;2023-04-15T09:27:05;94436.66;;;19.59;35.31
16451;BME280;12243;42.708;23.310;2023-04-15T09:29:32;94432.88;;;19.27;36.06
16451;BME280;12243;42.708;23.310;2023-04-15T09:32:08;94435.72;;;19.25;36.32
16451;BME280;12243;42.708;23.310;2023-04-15T09:34:35;94446.44;;;19.59;36.98
16451;BME280;12243;42.708;23.310;2023-04-15T09:37:02;94439.03;;;19.82;35.78
16451;BME280;12243;42.708;23.310;2023-04-15T09:39:44;94446.03;;;19.62;36.18
16451;BME280;12243;42.708;23.310;2023-04-15T09:42:14;94446.84;;;19.62;35.98
16451;BME280;12243;42.708;23.310;2023-04-15T09:44:42;94445.97;;;19.96;35.54
16451;BME280;12243;42.708;23.310;2023-04-15T09:47:09;94438.69;;;20.32;34.91
16451;BME280;12243;42.708;23.310;2023-04-15T09:49:54;94436.66;;;20.27;34.94
16451;BME280;12243;42.708;23.310;2023-04-15T09:52:21;94445.41;;;20.21;35.30
16451;BME280;12243;42.708;23.310;2023-04-15T09:54:52;94445.84;;;20.44;33.40
16451;BME280;12243;42.708;23.310;2023-04-15T09:57:20;94443.38;;;20.23;33.83
16451;BME280;12243;42.708;23.310;2023-04-15T09:59:48;94454.31;;;20.07;33.89
16451;BME280;12243;42.708;23.310;2023-04-15T10:02:15;94450.22;;;19.97;33.89
16451;BME280;12243;42.708;23.310;2023-04-15T10:04:43;94448.19;;;19.86;34.22
16451;BME280;12243;42.708;23.310;2023-04-15T10:07:12;94441.22;;;19.72;34.27
16451;BME280;12243;42.708;23.310;2023-04-15T10:09:43;94445.69;;;19.71;34.52
16451;BME280;12243;42.708;23.310;2023-04-15T10:12:11;94446.50;;;19.72;34.29
16451;BME280;12243;42.708;23.310;2023-04-15T10:14:41;94438.88;;;20.04;32.66
16451;BME280;12243;42.708;23.310;2023-04-15T10:17:10;94434.44;;;20.31;30.78
16451;BME280;12243;42.708;23.310;2023-04-15T10:19:38;94424.72;;;20.51;30.63
16451;BME280;12243;42.708;23.310;2023-04-15T10:22:06;94431.00;;;20.70;29.43
16451;BME280;12243;42.708;23.310;2023-04-15T10:24:34;94425.28;;;20.86;29.44
16451;BME280;12243;42.708;23.310;2023-04-15T10:27:02;94423.06;;;20.83;29.16
16451;BME280;12243;42.708;23.310;2023-04-15T10:29:30;94423.06;;;20.83;29.17
16451;BME280;12243;42.708;23.310;2023-04-15T10:31:59;94415.28;;;20.88;28.81
16451;BME280;12243;42.708;23.310;2023-04-15T10:34:28;94406.59;;;20.68;28.65
16451;BME280;12243;42.708;23.310;2023-04-15T10:36:59;94404.69;;;20.88;28.37
16451;BME280;12243;42.708;23.310;2023-04-15T10:39:41;94396.75;;;21.02;28.24
16451;BME280;12243;42.708;23.310;2023-04-15T10:42:10;94401.41;;;21.13;28.76
16451;BME280;12243;42.708;23.310;2023-04-15T10:44:37;94411.47;;;21.56;27.56
16451;BME280;12243;42.708;23.310;2023-04-15T10:47:10;94415.69;;;21.70;27.55
16451;BME280;12243;42.708;23.310;2023-04-15T10:49:45;94408.56;;;21.64;27.48
16451;BME280;12243;42.708;23.310;2023-04-15T10:52:14;94407.81;;;21.50;27.90
16451;BME280;12243;42.708;23.310;2023-04-15T10:54:41;94408.31;;;21.14;28.03
16451;BME280;12243;42.708;23.310;2023-04-15T10:57:14;94403.78;;;21.41;28.60
16451;BME280;12243;42.708;23.310;2023-04-15T11:00:03;94401.44;;;21.00;28.87
16451;BME280;12243;42.708;23.310;2023-04-15T11:02:45;94396.97;;;21.00;29.30
16451;BME280;12243;42.708;23.310;2023-04-15T11:05:13;94393.25;;;21.08;29.06
16451;BME280;12243;42.708;23.310;2023-04-15T11:07:47;94399.72;;;21.32;29.11
16451;BME280;12243;42.708;23.310;2023-04-15T11:13:27;94391.28;;;20.90;28.87
16451;BME280;12243;42.708;23.310;2023-04-15T11:16:00;94392.84;;;21.11;28.97
16451;BME280;12243;42.708;23.310;2023-04-15T11:18:29;94383.28;;;21.10;28.41
16451;BME280;12243;42.708;23.310;2023-04-15T11:20:58;94375.94;;;21.12;28.67
16451;BME280;12243;42.708;23.310;2023-04-15T11:23:28;94374.94;;;21.06;29.07
16451;BME280;12243;42.708;23.310;2023-04-15T11:25:57;94374.13;;;21.64;28.57
16451;BME280;12243;42.708;23.310;2023-04-15T11:28:25;94384.72;;;21.96;28.36
16451;BME280;12243;42.708;23.310;2023-04-15T11:30:53;94377.06;;;22.19;27.93
16451;BME280;12243;42.708;23.310;2023-04-15T11:33:21;94373.47;;;22.39;27.71
16451;BME280;12243;42.708;23.310;2023-04-15T11:35:51;94373.88;;;22.04;26.92
16451;BME280;12243;42.708;23.310;2023-04-15T11:38:18;94382.25;;;21.69;27.09
16451;BME280;12243;42.708;23.310;2023-04-15T11:40:45;94376.00;;;21.57;27.31
16451;BME280;12243;42.708;23.310;2023-04-15T11:43:14;94373.25;;;21.18;27.47
16451;BME280;12243;42.708;23.310;2023-04-15T11:45:49;94370.84;;;21.17;27.43
16451;BME280;12243;42.708;23.310;2023-04-15T11:48:17;94370.47;;;21.00;28.36
16451;BME280;12243;42.708;23.310;2023-04-15T11:50:45;94379.69;;;20.78;28.66
16451;BME280;12243;42.708;23.310;2023-04-15T11:53:13;94365.34;;;21.12;27.79
16451;BME280;12243;42.708;23.310;2023-04-15T11:55:41;94370.44;;;21.20;28.24
16451;BME280;12243;42.708;23.310;2023-04-15T11:58:10;94369.22;;;21.61;27.74
16451;BME280;12243;42.708;23.310;2023-04-15T12:00:39;94376.06;;;21.30;26.62
16451;BME280;12243;42.708;23.310;2023-04-15T12:03:13;94368.75;;;21.26;27.35
16451;BME280;12243;42.708;23.310;2023-04-15T12:06:13;94375.78;;;21.00;27.77
16451;BME280;12243;42.708;23.310;2023-04-15T12:09:09;94382.22;;;21.37;27.21
16451;BME280;12243;42.708;23.310;2023-04-15T12:11:42;94368.41;;;21.09;26.89
16451;BME280;12243;42.708;23.310;2023-04-15T12:14:11;94375.72;;;21.20;27.14
16451;BME280;12243;42.708;23.310;2023-04-15T12:16:40;94373.66;;;21.35;27.03
16451;BME280;12243;42.708;23.310;2023-04-15T12:19:10;94378.47;;;21.52;26.92
16451;BME280;12243;42.708;23.310;2023-04-15T12:21:39;94366.78;;;21.66;26.80
16451;BME280;12243;42.708;23.310;2023-04-15T12:24:09;94369.91;;;21.50;26.71
16451;BME280;12243;42.708;23.310;2023-04-15T12:26:42;94368.31;;;21.42;27.33
16451;BME280;12243;42.708;23.310;2023-04-15T12:29:10;94375.91;;;21.70;27.08
16451;BME280;12243;42.708;23.310;2023-04-15T12:31:46;94374.97;;;21.89;25.98
16451;BME280;12243;42.708;23.310;2023-04-15T12:34:13;94372.25;;;21.71;25.94
16451;BME280;12243;42.708;23.310;2023-04-15T12:36:41;94380.03;;;21.66;26.27
16451;BME280;12243;42.708;23.310;2023-04-15T12:39:09;94367.69;;;21.47;26.33
16451;BME280;12243;42.708;23.310;2023-04-15T12:41:36;94386.59;;;21.57;26.10
16451;BME280;12243;42.708;23.310;2023-04-15T12:44:03;94375.44;;;21.86;25.96
16451;BME280;12243;42.708;23.310;2023-04-15T12:46:30;94383.19;;;21.81;26.40
16451;BME280;12243;42.708;23.310;2023-04-15T12:48:57;94381.16;;;21.83;26.51
16451;BME280;12243;42.708;23.310;2023-04-15T12:51:24;94377.03;;;21.56;26.84
16451;BME280;12243;42.708;23.310;2023-04-15T12:53:51;94374.41;;;21.49;27.46
16451;BME280;12243;42.708;23.310;2023-04-15T12:56:20;94378.06;;;21.55;26.79
16451;BME280;12243;42.708;23.310;2023-04-15T12:58:46;94386.63;;;21.44;26.85
16451;BME280;12243;42.708;23.310;2023-04-15T13:01:13;94383.91;;;20.99;26.75
16451;BME280;12243;42.708;23.310;2023-04-15T13:03:40;94388.91;;;21.27;26.94